createdAt,value
2018-05-01T00:00:11.040Z,9.29
2018-05-01T00:01:19.872Z,9.33
2018-05-01T00:02:28.703Z,9.42
2018-05-01T00:03:37.733Z,9.32
2018-05-01T00:04:46.838Z,9.31
2018-05-01T00:05:55.943Z,9.28
2018-05-01T00:07:05.046Z,9.33
2018-05-01T00:08:13.880Z,9.26
2018-05-01T00:09:22.812Z,9.24
2018-05-01T00:10:31.645Z,9.21
2018-05-01T00:11:40.476Z,9.1
2018-05-01T00:12:49.310Z,9.14
2018-05-01T00:13:58.141Z,9.13
2018-05-01T00:15:07.123Z,9.08
2018-05-01T00:16:15.960Z,9.1
2018-05-01T00:17:24.796Z,9.08
2018-05-01T00:18:33.901Z,9.08
2018-05-01T00:19:42.732Z,9.05
2018-05-01T00:20:51.763Z,8.98
2018-05-01T00:22:00.594Z,9.01
2018-05-01T00:23:09.426Z,8.94
2018-05-01T00:24:18.260Z,9.11
2018-05-01T00:25:27.088Z,8.91
2018-05-01T00:26:36.294Z,8.91
2018-05-01T00:27:45.124Z,8.94
2018-05-01T00:28:53.955Z,9.08
2018-05-01T00:30:02.785Z,8.98
2018-05-01T00:31:11.617Z,8.98
2018-05-01T00:32:20.723Z,9.02
2018-05-01T00:33:29.554Z,8.89
2018-05-01T00:34:38.659Z,9.01
2018-05-01T00:35:47.490Z,8.94
2018-05-01T00:36:56.595Z,9.02
2018-05-01T00:38:05.425Z,9.05
2018-05-01T00:39:14.261Z,8.95
2018-05-01T00:40:23.093Z,8.89
2018-05-01T00:41:31.921Z,8.89
2018-05-01T00:42:40.754Z,8.98
2018-05-01T00:43:49.585Z,8.98
2018-05-01T00:44:58.417Z,8.91
2018-05-01T00:46:07.251Z,9.01
2018-05-01T00:47:16.085Z,8.96
2018-05-01T00:48:24.917Z,8.94
2018-05-01T00:49:33.899Z,8.92
2018-05-01T00:50:42.729Z,9.02
2018-05-01T00:51:51.634Z,8.95
2018-05-01T00:53:00.387Z,8.96
2018-05-01T00:54:09.222Z,8.92
2018-05-01T00:55:18.481Z,8.94
2018-05-01T00:56:27.319Z,8.94
2018-05-01T00:57:36.420Z,8.96
2018-05-01T00:58:45.254Z,8.98
2018-05-01T00:59:54.146Z,8.87
2018-05-01T01:01:03.200Z,8.99
2018-05-01T01:02:12.033Z,8.98
2018-05-01T01:03:21.416Z,9.02
2018-05-01T01:04:30.250Z,8.94
2018-05-01T01:05:39.364Z,8.92
2018-05-01T01:06:48.197Z,8.98
2018-05-01T01:07:57.027Z,9.02
2018-05-01T01:09:05.857Z,8.94
2018-05-01T01:10:14.692Z,9.11
2018-05-01T01:11:23.527Z,8.91
2018-05-01T01:12:32.354Z,8.94
2018-05-01T01:13:41.473Z,8.89
2018-05-01T01:14:50.301Z,8.94
2018-05-01T01:15:59.406Z,8.91
2018-05-01T01:17:08.237Z,9.1
2018-05-01T01:18:17.221Z,8.91
2018-05-01T01:19:26.054Z,8.94
2018-05-01T01:20:34.890Z,9.02
2018-05-01T01:21:43.996Z,9.02
2018-05-01T01:22:52.829Z,9.02
2018-05-01T01:24:01.766Z,9.11
2018-05-01T01:25:10.597Z,9.02
2018-05-01T01:26:19.429Z,8.91
2018-05-01T01:27:28.263Z,8.98
2018-05-01T01:28:37.101Z,9.08
2018-05-01T01:29:45.931Z,9.04
2018-05-01T01:30:55.038Z,8.91
2018-05-01T01:32:03.876Z,9.01
2018-05-01T01:33:12.702Z,9.01
2018-05-01T01:34:21.536Z,8.96
2018-05-01T01:35:30.518Z,8.92
2018-05-01T01:36:39.355Z,9.04
2018-05-01T01:37:48.187Z,8.98
2018-05-01T01:38:57.297Z,8.98
2018-05-01T01:40:06.406Z,8.95
2018-05-01T01:41:15.386Z,8.91
2018-05-01T01:42:24.219Z,9.01
2018-05-01T01:43:33.050Z,8.91
2018-05-01T01:44:42.173Z,8.91
2018-05-01T01:45:51.000Z,8.92
2018-05-01T01:47:00.080Z,8.91
2018-05-01T01:48:08.911Z,8.95
2018-05-01T01:49:18.020Z,9.02
2018-05-01T01:50:26.854Z,8.94
2018-05-01T01:51:35.684Z,8.95
2018-05-01T01:52:44.516Z,8.98
2018-05-01T01:53:53.351Z,8.95
2018-05-01T01:55:02.473Z,8.83
2018-05-01T01:56:11.307Z,8.87
2018-05-01T01:57:20.142Z,8.79
2018-05-01T01:58:29.027Z,8.71
2018-05-01T01:59:38.137Z,8.77
2018-05-01T02:00:46.968Z,8.66
2018-05-01T02:01:56.348Z,8.65
2018-05-01T02:03:05.463Z,8.65
2018-05-01T02:04:14.445Z,8.66
2018-05-01T02:05:23.273Z,8.62
2018-05-01T02:06:32.106Z,8.61
2018-05-01T02:07:41.213Z,8.56
2018-05-01T02:08:50.044Z,8.52
2018-05-01T02:09:59.175Z,8.59
2018-05-01T02:11:08.020Z,8.48
2018-05-01T02:12:16.837Z,8.52
2018-05-01T02:13:25.671Z,8.58
2018-05-01T02:14:34.500Z,8.58
2018-05-01T02:15:43.484Z,8.5
2018-05-01T02:16:52.316Z,8.5
2018-05-01T02:18:01.146Z,8.5
2018-05-01T02:19:09.982Z,8.44
2018-05-01T02:20:18.810Z,8.48
2018-05-01T02:21:27.888Z,8.41
2018-05-01T02:22:36.720Z,8.36
2018-05-01T02:23:45.827Z,8.38
2018-05-01T02:24:54.939Z,8.34
2018-05-01T02:26:04.046Z,8.36
2018-05-01T02:27:12.928Z,8.37
2018-05-01T02:28:22.589Z,8.33
2018-05-01T02:29:31.419Z,8.28
2018-05-01T02:30:40.257Z,8.2
2018-05-01T02:31:49.370Z,8.18
2018-05-01T02:32:58.302Z,8.18
2018-05-01T02:34:07.470Z,8.12
2018-05-01T02:35:16.303Z,8.18
2018-05-01T02:36:25.696Z,8.19
2018-05-01T02:37:34.809Z,8.11
2018-05-01T02:38:44.216Z,8.1
2018-05-01T02:39:53.869Z,8.23
2018-05-01T02:41:02.985Z,8.15
2018-05-01T02:42:12.175Z,8.29
2018-05-01T02:43:21.280Z,8.2
2018-05-01T02:44:30.770Z,8.16
2018-05-01T02:45:39.607Z,8.08
2018-05-01T02:46:49.277Z,8.18
2018-05-01T02:47:58.108Z,8.12
2018-05-01T02:49:07.220Z,8.16
2018-05-01T02:50:16.475Z,8.08
2018-05-01T02:51:25.587Z,8.1
2018-05-01T02:52:35.256Z,8.18
2018-05-01T02:53:44.359Z,8.1
2018-05-01T02:54:53.741Z,8.12
2018-05-01T02:56:02.946Z,8.11
2018-05-01T02:57:12.333Z,8.1
2018-05-01T02:58:21.715Z,8.11
2018-05-01T02:59:30.833Z,8.07
2018-05-01T03:00:39.664Z,7.98
2018-05-01T03:01:49.070Z,7.95
2018-05-01T03:02:58.458Z,8.02
2018-05-01T03:04:07.290Z,7.83
2018-05-01T03:05:16.396Z,7.9
2018-05-01T03:06:25.231Z,7.86
2018-05-01T03:07:34.612Z,7.97
2018-05-01T03:08:43.720Z,7.98
2018-05-01T03:09:52.610Z,7.89
2018-05-01T03:11:01.666Z,7.9
2018-05-01T03:12:11.058Z,7.89
2018-05-01T03:13:20.542Z,7.9
2018-05-01T03:14:29.647Z,7.75
2018-05-01T03:15:38.752Z,7.87
2018-05-01T03:16:47.582Z,7.85
2018-05-01T03:17:56.414Z,7.85
2018-05-01T03:19:05.828Z,7.89
2018-05-01T03:20:14.660Z,7.89
2018-05-01T03:21:23.490Z,7.9
2018-05-01T03:22:32.322Z,7.86
2018-05-01T03:23:41.151Z,7.82
2018-05-01T03:24:50.285Z,7.85
2018-05-01T03:25:59.118Z,7.82
2018-05-01T03:27:08.226Z,7.8
2018-05-01T03:28:17.332Z,7.68
2018-05-01T03:29:26.163Z,7.64
2018-05-01T03:30:35.532Z,7.79
2018-05-01T03:31:44.923Z,7.68
2018-05-01T03:32:54.029Z,7.71
2018-05-01T03:34:02.860Z,7.69
2018-05-01T03:35:11.964Z,7.63
2018-05-01T03:36:21.096Z,7.63
2018-05-01T03:37:29.926Z,7.53
2018-05-01T03:38:38.755Z,7.58
2018-05-01T03:39:47.587Z,7.61
2018-05-01T03:40:56.419Z,7.57
2018-05-01T03:42:05.622Z,7.53
2018-05-01T03:43:14.453Z,7.49
2018-05-01T03:44:23.284Z,7.57
2018-05-01T03:45:32.111Z,7.5
2018-05-01T03:46:40.943Z,7.57
2018-05-01T03:47:50.199Z,7.55
2018-05-01T03:48:59.032Z,7.52
2018-05-01T03:50:07.859Z,7.53
2018-05-01T03:51:16.687Z,7.63
2018-05-01T03:52:25.517Z,7.63
2018-05-01T03:53:34.550Z,7.53
2018-05-01T03:54:43.382Z,7.58
2018-05-01T03:55:52.222Z,7.67
2018-05-01T03:57:01.043Z,7.57
2018-05-01T03:58:09.873Z,7.57
2018-05-01T03:59:18.753Z,7.53
2018-05-01T04:00:27.584Z,7.53
2018-05-01T04:01:36.416Z,7.48
2018-05-01T04:02:45.242Z,7.46
2018-05-01T04:03:54.073Z,7.46
2018-05-01T04:05:02.900Z,7.48
2018-05-01T04:06:11.728Z,7.46
2018-05-01T04:07:20.559Z,7.37
2018-05-01T04:08:29.391Z,7.39
2018-05-01T04:09:38.226Z,7.37
2018-05-01T04:10:47.103Z,7.32
2018-05-01T04:11:55.937Z,7.46
2018-05-01T04:13:05.042Z,7.4
2018-05-01T04:14:13.874Z,7.45
2018-05-01T04:15:22.705Z,7.34
2018-05-01T04:16:31.836Z,7.37
2018-05-01T04:17:40.670Z,7.28
2018-05-01T04:18:49.497Z,7.28
2018-05-01T04:19:58.881Z,7.32
2018-05-01T04:21:07.713Z,7.31
2018-05-01T04:22:16.796Z,7.35
2018-05-01T04:23:25.900Z,7.31
2018-05-01T04:24:34.724Z,7.17
2018-05-01T04:25:43.837Z,7.23
2018-05-01T04:26:53.042Z,7.2
2018-05-01T04:28:02.029Z,7.2
2018-05-01T04:29:11.136Z,7.17
2018-05-01T04:30:19.966Z,7.24
2018-05-01T04:31:28.796Z,7.12
2018-05-01T04:32:37.626Z,7.17
2018-05-01T04:33:46.605Z,7.1
2018-05-01T04:34:55.432Z,7.13
2018-05-01T04:36:04.263Z,7.2
2018-05-01T04:37:13.368Z,7.15
2018-05-01T04:38:22.199Z,7.24
2018-05-01T04:39:31.411Z,7.12
2018-05-01T04:40:40.243Z,7.09
2018-05-01T04:41:49.072Z,7.06
2018-05-01T04:42:57.900Z,7.07
2018-05-01T04:44:06.730Z,7.09
2018-05-01T04:45:15.859Z,6.99
2018-05-01T04:46:24.688Z,6.99
2018-05-01T04:47:33.521Z,6.98
2018-05-01T04:48:42.632Z,7.02
2018-05-01T04:49:51.466Z,6.99
2018-05-01T04:51:00.450Z,7.05
2018-05-01T04:52:09.276Z,7.07
2018-05-01T04:53:18.105Z,7.02
2018-05-01T04:54:26.938Z,6.99
2018-05-01T04:55:35.763Z,6.94
2018-05-01T04:56:44.645Z,7.03
2018-05-01T04:57:53.479Z,6.91
2018-05-01T04:59:02.309Z,7.02
2018-05-01T05:00:11.136Z,6.92
2018-05-01T05:01:19.970Z,6.89
2018-05-01T05:02:28.796Z,6.95
2018-05-01T05:03:37.628Z,6.87
2018-05-01T05:04:46.461Z,6.97
2018-05-01T05:05:55.294Z,6.88
2018-05-01T05:07:04.402Z,6.94
2018-05-01T05:08:13.606Z,7.06
2018-05-01T05:09:22.489Z,6.95
2018-05-01T05:10:31.593Z,6.94
2018-05-01T05:11:40.698Z,6.88
2018-05-01T05:12:49.802Z,6.79
2018-05-01T05:13:58.733Z,6.98
2018-05-01T05:15:07.559Z,6.95
2018-05-01T05:16:16.394Z,6.94
2018-05-01T05:17:25.217Z,6.89
2018-05-01T05:18:34.053Z,6.88
2018-05-01T05:19:43.077Z,6.92
2018-05-01T05:20:51.906Z,6.89
2018-05-01T05:22:00.739Z,6.88
2018-05-01T05:23:09.572Z,6.85
2018-05-01T05:24:18.399Z,6.79
2018-05-01T05:25:27.279Z,6.79
2018-05-01T05:26:36.111Z,6.79
2018-05-01T05:27:45.485Z,6.79
2018-05-01T05:28:54.593Z,6.89
2018-05-01T05:30:03.424Z,6.77
2018-05-01T05:31:12.353Z,6.74
2018-05-01T05:32:21.183Z,6.76
2018-05-01T05:33:30.013Z,6.77
2018-05-01T05:34:39.124Z,6.79
2018-05-01T05:35:47.955Z,6.73
2018-05-01T05:36:57.059Z,6.66
2018-05-01T05:38:05.886Z,6.81
2018-05-01T05:39:14.714Z,6.73
2018-05-01T05:40:23.544Z,6.76
2018-05-01T05:41:32.376Z,6.74
2018-05-01T05:42:41.822Z,6.79
2018-05-01T05:43:50.610Z,6.73
2018-05-01T05:44:59.444Z,6.73
2018-05-01T05:46:08.272Z,6.81
2018-05-01T05:47:17.102Z,6.74
2018-05-01T05:48:26.362Z,6.85
2018-05-01T05:49:35.193Z,6.89
2018-05-01T05:50:44.024Z,6.81
2018-05-01T05:51:52.854Z,6.79
2018-05-01T05:53:01.689Z,6.79
2018-05-01T05:54:10.948Z,6.76
2018-05-01T05:55:20.051Z,6.84
2018-05-01T05:56:28.881Z,6.79
2018-05-01T05:57:37.710Z,6.7
2018-05-01T05:58:46.542Z,6.79
2018-05-01T05:59:55.801Z,6.84
2018-05-01T06:01:04.656Z,6.77
2018-05-01T06:02:13.477Z,6.79
2018-05-01T06:03:22.310Z,6.76
2018-05-01T06:04:31.410Z,6.77
2018-05-01T06:05:40.252Z,6.66
2018-05-01T06:06:49.361Z,6.76
2018-05-01T06:07:58.479Z,6.74
2018-05-01T06:09:07.582Z,6.73
2018-05-01T06:10:16.409Z,6.74
2018-05-01T06:11:25.239Z,6.7
2018-05-01T06:12:34.072Z,6.71
2018-05-01T06:13:43.220Z,6.76
2018-05-01T06:14:52.336Z,6.71
2018-05-01T06:16:01.164Z,6.7
2018-05-01T06:17:10.244Z,6.71
2018-05-01T06:18:19.349Z,6.66
2018-05-01T06:19:28.181Z,6.69
2018-05-01T06:20:37.015Z,6.73
2018-05-01T06:21:45.921Z,6.67
2018-05-01T06:22:55.384Z,6.73
2018-05-01T06:24:04.487Z,6.62
2018-05-01T06:25:13.319Z,6.7
2018-05-01T06:26:22.144Z,6.73
2018-05-01T06:27:30.974Z,6.66
2018-05-01T06:28:39.903Z,6.66
2018-05-01T06:29:48.733Z,6.64
2018-05-01T06:30:57.589Z,6.67
2018-05-01T06:32:06.395Z,6.64
2018-05-01T06:33:15.225Z,6.7
2018-05-01T06:34:24.943Z,6.69
2018-05-01T06:35:33.762Z,6.61
2018-05-01T06:36:42.592Z,6.69
2018-05-01T06:37:51.707Z,6.7
2018-05-01T06:39:00.539Z,6.67
2018-05-01T06:40:09.367Z,6.71
2018-05-01T06:41:18.196Z,6.73
2018-05-01T06:42:27.031Z,6.66
2018-05-01T06:43:35.867Z,6.69
2018-05-01T06:44:44.699Z,6.73
2018-05-01T06:45:53.813Z,6.71
2018-05-01T06:47:02.645Z,6.74
2018-05-01T06:48:11.479Z,6.69
2018-05-01T06:49:20.309Z,6.74
2018-05-01T06:50:29.688Z,6.76
2018-05-01T06:51:38.519Z,6.69
2018-05-01T06:52:47.347Z,6.76
2018-05-01T06:53:56.448Z,6.62
2018-05-01T06:55:05.277Z,6.66
2018-05-01T06:56:14.109Z,6.67
2018-05-01T06:57:23.213Z,6.67
2018-05-01T06:58:32.322Z,6.74
2018-05-01T06:59:41.151Z,6.71
2018-05-01T07:00:49.977Z,6.64
2018-05-01T07:01:58.805Z,6.7
2018-05-01T07:03:07.635Z,6.62
2018-05-01T07:04:16.492Z,6.61
2018-05-01T07:05:26.092Z,6.61
2018-05-01T07:06:34.930Z,6.64
2018-05-01T07:07:43.758Z,6.67
2018-05-01T07:08:52.861Z,6.61
2018-05-01T07:10:01.692Z,6.67
2018-05-01T07:11:10.521Z,6.7
2018-05-01T07:12:19.350Z,6.64
2018-05-01T07:13:28.187Z,6.69
2018-05-01T07:14:37.287Z,6.62
2018-05-01T07:15:46.211Z,6.64
2018-05-01T07:16:55.389Z,6.69
2018-05-01T07:18:04.220Z,6.67
2018-05-01T07:19:13.048Z,6.62
2018-05-01T07:20:21.879Z,6.55
2018-05-01T07:21:30.989Z,6.62
2018-05-01T07:22:40.604Z,6.61
2018-05-01T07:23:50.265Z,6.66
2018-05-01T07:24:59.097Z,6.62
2018-05-01T07:26:07.925Z,6.56
2018-05-01T07:27:16.754Z,6.58
2018-05-01T07:28:25.584Z,6.49
2018-05-01T07:29:34.413Z,6.67
2018-05-01T07:30:43.245Z,6.62
2018-05-01T07:31:52.078Z,6.48
2018-05-01T07:33:00.905Z,6.52
2018-05-01T07:34:10.015Z,6.54
2018-05-01T07:35:19.404Z,6.54
2018-05-01T07:36:28.240Z,6.56
2018-05-01T07:37:37.898Z,6.54
2018-05-01T07:38:46.727Z,6.55
2018-05-01T07:39:55.555Z,6.64
2018-05-01T07:41:04.381Z,6.61
2018-05-01T07:42:13.210Z,6.56
2018-05-01T07:43:22.038Z,6.58
2018-05-01T07:44:31.152Z,6.66
2018-05-01T07:45:39.983Z,6.52
2018-05-01T07:46:48.813Z,6.54
2018-05-01T07:47:57.641Z,6.64
2018-05-01T07:49:06.527Z,6.61
2018-05-01T07:50:15.940Z,6.49
2018-05-01T07:51:25.042Z,6.61
2018-05-01T07:52:33.873Z,6.55
2018-05-01T07:53:42.975Z,6.64
2018-05-01T07:54:51.805Z,6.64
2018-05-01T07:56:00.634Z,6.66
2018-05-01T07:57:09.613Z,6.59
2018-05-01T07:58:18.457Z,6.66
2018-05-01T07:59:27.618Z,6.66
2018-05-01T08:00:36.383Z,6.64
2018-05-01T08:01:45.215Z,6.66
2018-05-01T08:02:54.361Z,6.67
2018-05-01T08:04:03.190Z,6.71
2018-05-01T08:05:12.021Z,6.67
2018-05-01T08:06:20.853Z,6.7
2018-05-01T08:07:29.683Z,6.71
2018-05-01T08:08:38.511Z,6.71
2018-05-01T08:09:47.342Z,6.67
2018-05-01T08:10:56.177Z,6.7
2018-05-01T08:12:05.068Z,6.77
2018-05-01T08:13:13.846Z,6.76
2018-05-01T08:14:23.478Z,6.81
2018-05-01T08:15:32.308Z,6.79
2018-05-01T08:16:41.145Z,6.77
2018-05-01T08:17:50.249Z,6.7
2018-05-01T08:18:59.353Z,6.73
2018-05-01T08:20:08.282Z,6.76
2018-05-01T08:21:17.396Z,6.81
2018-05-01T08:22:26.508Z,6.84
2018-05-01T08:23:35.340Z,6.8
2018-05-01T08:24:44.729Z,6.84
2018-05-01T08:25:54.683Z,6.89
2018-05-01T08:27:03.513Z,6.81
2018-05-01T08:28:12.343Z,6.88
2018-05-01T08:29:21.178Z,6.85
2018-05-01T08:30:30.135Z,6.85
2018-05-01T08:31:39.722Z,6.88
2018-05-01T08:32:48.552Z,6.85
2018-05-01T08:33:57.386Z,6.94
2018-05-01T08:35:06.284Z,6.89
2018-05-01T08:36:15.176Z,6.84
2018-05-01T08:37:24.284Z,6.91
2018-05-01T08:38:33.830Z,6.88
2018-05-01T08:39:42.806Z,6.89
2018-05-01T08:40:51.948Z,7.02
2018-05-01T08:42:00.950Z,6.97
2018-05-01T08:43:10.038Z,6.89
2018-05-01T08:44:19.036Z,6.89
2018-05-01T08:45:28.332Z,6.88
2018-05-01T08:46:37.296Z,6.87
2018-05-01T08:47:46.257Z,6.92
2018-05-01T08:48:55.234Z,6.88
2018-05-01T08:50:04.068Z,6.95
2018-05-01T08:51:13.172Z,6.95
2018-05-01T08:52:22.002Z,7.06
2018-05-01T08:53:30.831Z,7.05
2018-05-01T08:54:40.518Z,7.09
2018-05-01T08:55:49.347Z,7.05
2018-05-01T08:56:58.458Z,7.15
2018-05-01T08:58:07.288Z,7.09
2018-05-01T08:59:16.119Z,7.16
2018-05-01T09:00:25.050Z,7.15
2018-05-01T09:01:33.880Z,7.15
2018-05-01T09:02:43.258Z,7.16
2018-05-01T09:03:52.640Z,7.13
2018-05-01T09:05:01.474Z,7.21
2018-05-01T09:06:11.017Z,7.12
2018-05-01T09:07:19.845Z,7.2
2018-05-01T09:08:28.675Z,7.24
2018-05-01T09:09:37.858Z,7.2
2018-05-01T09:10:46.613Z,7.21
2018-05-01T09:11:55.599Z,7.21
2018-05-01T09:13:04.702Z,7.24
2018-05-01T09:14:13.535Z,7.2
2018-05-01T09:15:22.377Z,7.34
2018-05-01T09:16:31.494Z,7.31
2018-05-01T09:17:40.857Z,7.3
2018-05-01T09:18:49.613Z,7.2
2018-05-01T09:19:58.440Z,7.31
2018-05-01T09:21:07.274Z,7.21
2018-05-01T09:22:16.105Z,7.31
2018-05-01T09:23:24.937Z,7.3
2018-05-01T09:24:33.771Z,7.35
2018-05-01T09:25:43.211Z,7.34
2018-05-01T09:26:52.317Z,7.42
2018-05-01T09:28:01.148Z,7.4
2018-05-01T09:29:10.253Z,7.3
2018-05-01T09:30:19.083Z,7.37
2018-05-01T09:31:27.915Z,7.43
2018-05-01T09:32:36.745Z,7.43
2018-05-01T09:33:45.853Z,7.43
2018-05-01T09:34:54.836Z,7.46
2018-05-01T09:36:03.673Z,7.45
2018-05-01T09:37:12.503Z,7.48
2018-05-01T09:38:21.334Z,7.46
2018-05-01T09:39:30.167Z,7.43
2018-05-01T09:40:39.298Z,7.46
2018-05-01T09:41:48.130Z,7.45
2018-05-01T09:42:56.957Z,7.43
2018-05-01T09:44:05.789Z,7.49
2018-05-01T09:45:15.172Z,7.58
2018-05-01T09:46:24.153Z,7.49
2018-05-01T09:47:33.318Z,7.5
2018-05-01T09:48:42.451Z,7.5
2018-05-01T09:49:51.284Z,7.48
2018-05-01T09:51:00.116Z,7.55
2018-05-01T09:52:08.950Z,7.5
2018-05-01T09:53:18.099Z,7.55
2018-05-01T09:54:27.657Z,7.52
2018-05-01T09:55:36.767Z,7.57
2018-05-01T09:56:45.598Z,7.64
2018-05-01T09:57:54.480Z,7.58
2018-05-01T09:59:03.317Z,7.58
2018-05-01T10:00:12.153Z,7.6
2018-05-01T10:01:20.982Z,7.55
2018-05-01T10:02:29.814Z,7.68
2018-05-01T10:03:39.124Z,7.72
2018-05-01T10:04:47.955Z,7.67
2018-05-01T10:05:56.786Z,7.68
2018-05-01T10:07:05.624Z,7.85
2018-05-01T10:08:14.457Z,7.77
2018-05-01T10:09:23.708Z,7.82
2018-05-01T10:10:32.529Z,7.83
2018-05-01T10:11:41.362Z,7.83
2018-05-01T10:12:50.477Z,7.8
2018-05-01T10:13:59.311Z,7.87
2018-05-01T10:15:08.241Z,7.82
2018-05-01T10:16:17.073Z,7.85
2018-05-01T10:17:25.909Z,7.92
2018-05-01T10:18:35.014Z,7.89
2018-05-01T10:19:43.846Z,7.9
2018-05-01T10:20:52.828Z,7.92
2018-05-01T10:22:01.667Z,7.95
2018-05-01T10:23:10.498Z,7.87
2018-05-01T10:24:19.333Z,7.98
2018-05-01T10:25:28.165Z,8.01
2018-05-01T10:26:37.576Z,7.97
2018-05-01T10:27:46.408Z,8.05
2018-05-01T10:28:55.239Z,8.01
2018-05-01T10:30:04.355Z,7.97
2018-05-01T10:31:13.460Z,8
2018-05-01T10:32:22.442Z,7.98
2018-05-01T10:33:31.275Z,7.98
2018-05-01T10:34:40.107Z,7.93
2018-05-01T10:35:48.941Z,7.93
2018-05-01T10:36:57.774Z,8.04
2018-05-01T10:38:06.757Z,8.08
2018-05-01T10:39:15.590Z,8.04
2018-05-01T10:40:24.425Z,8.16
2018-05-01T10:41:33.258Z,8.08
2018-05-01T10:42:42.094Z,8.07
2018-05-01T10:43:50.925Z,8.18
2018-05-01T10:44:59.758Z,8.22
2018-05-01T10:46:08.592Z,8.28
2018-05-01T10:47:17.426Z,8.29
2018-05-01T10:48:26.261Z,8.26
2018-05-01T10:49:35.095Z,8.33
2018-05-01T10:50:43.926Z,8.28
2018-05-01T10:51:52.758Z,8.33
2018-05-01T10:53:01.592Z,8.33
2018-05-01T10:54:10.424Z,8.34
2018-05-01T10:55:19.315Z,8.26
2018-05-01T10:56:28.436Z,8.36
2018-05-01T10:57:37.568Z,8.43
2018-05-01T10:58:46.415Z,8.45
2018-05-01T10:59:55.534Z,8.41
2018-05-01T11:01:04.477Z,8.37
2018-05-01T11:02:13.325Z,8.36
2018-05-01T11:03:22.195Z,8.43
2018-05-01T11:04:31.007Z,8.37
2018-05-01T11:05:39.868Z,8.36
2018-05-01T11:06:48.812Z,8.26
2018-05-01T11:07:57.757Z,8.37
2018-05-01T11:09:06.876Z,8.36
2018-05-01T11:10:15.721Z,8.34
2018-05-01T11:11:24.572Z,8.36
2018-05-01T11:12:33.713Z,8.3
2018-05-01T11:13:42.558Z,8.28
2018-05-01T11:14:51.402Z,8.3
2018-05-01T11:16:00.241Z,8.33
2018-05-01T11:17:09.364Z,8.37
2018-05-01T11:18:18.635Z,8.38
2018-05-01T11:19:27.750Z,8.36
2018-05-01T11:20:36.583Z,8.4
2018-05-01T11:21:45.692Z,8.34
2018-05-01T11:22:54.530Z,8.45
2018-05-01T11:24:03.613Z,8.45
2018-05-01T11:25:12.718Z,8.44
2018-05-01T11:26:21.552Z,8.53
2018-05-01T11:27:30.745Z,8.47
2018-05-01T11:28:40.039Z,8.41
2018-05-01T11:29:48.838Z,8.45
2018-05-01T11:30:57.669Z,8.5
2018-05-01T11:32:06.503Z,8.48
2018-05-01T11:33:15.337Z,8.47
2018-05-01T11:34:24.171Z,8.53
2018-05-01T11:35:33.658Z,8.59
2018-05-01T11:36:42.491Z,8.61
2018-05-01T11:37:51.596Z,8.59
2018-05-01T11:39:00.426Z,8.61
2018-05-01T11:40:09.258Z,8.61
2018-05-01T11:41:18.243Z,8.62
2018-05-01T11:42:27.348Z,8.53
2018-05-01T11:43:36.181Z,8.58
2018-05-01T11:44:45.016Z,8.48
2018-05-01T11:45:53.848Z,8.53
2018-05-01T11:47:02.785Z,8.59
2018-05-01T11:48:11.613Z,8.58
2018-05-01T11:49:20.447Z,8.44
2018-05-01T11:50:29.279Z,8.44
2018-05-01T11:51:38.114Z,8.48
2018-05-01T11:52:46.997Z,8.52
2018-05-01T11:53:55.830Z,8.4
2018-05-01T11:55:04.940Z,8.41
2018-05-01T11:56:14.058Z,8.38
2018-05-01T11:57:22.892Z,8.37
2018-05-01T11:58:32.027Z,8.4
2018-05-01T11:59:40.875Z,8.44
2018-05-01T12:00:49.705Z,8.36
2018-05-01T12:01:58.537Z,8.52
2018-05-01T12:03:07.646Z,8.43
2018-05-01T12:04:16.630Z,8.43
2018-05-01T12:05:25.735Z,8.37
2018-05-01T12:06:34.567Z,8.38
2018-05-01T12:07:43.400Z,8.45
2018-05-01T12:08:52.233Z,8.45
2018-05-01T12:10:01.067Z,8.38
2018-05-01T12:11:09.903Z,8.44
2018-05-01T12:12:18.728Z,8.5
2018-05-01T12:13:27.562Z,8.44
2018-05-01T12:14:36.393Z,8.41
2018-05-01T12:15:45.328Z,8.38
2018-05-01T12:16:54.441Z,8.4
2018-05-01T12:18:03.279Z,8.43
2018-05-01T12:19:12.386Z,8.47
2018-05-01T12:20:21.218Z,8.48
2018-05-01T12:21:30.201Z,8.52
2018-05-01T12:22:39.034Z,8.45
2018-05-01T12:23:48.189Z,8.45
2018-05-01T12:24:57.022Z,8.43
2018-05-01T12:26:05.853Z,8.44
2018-05-01T12:27:14.938Z,8.4
2018-05-01T12:28:24.046Z,8.36
2018-05-01T12:29:32.879Z,8.33
2018-05-01T12:30:41.987Z,8.4
2018-05-01T12:31:50.821Z,8.41
2018-05-01T12:32:59.651Z,8.44
2018-05-01T12:34:08.482Z,8.38
2018-05-01T12:35:17.314Z,8.29
2018-05-01T12:36:26.510Z,8.26
2018-05-01T12:37:36.002Z,8.29
2018-05-01T12:38:44.927Z,8.29
2018-05-01T12:39:53.761Z,8.3
2018-05-01T12:41:02.596Z,8.29
2018-05-01T12:42:11.427Z,8.3
2018-05-01T12:43:20.533Z,8.23
2018-05-01T12:44:29.364Z,8.22
2018-05-01T12:45:38.199Z,8.26
2018-05-01T12:46:47.029Z,8.33
2018-05-01T12:47:55.870Z,8.26
2018-05-01T12:49:04.978Z,8.26
2018-05-01T12:50:13.959Z,8.18
2018-05-01T12:51:22.790Z,8.12
2018-05-01T12:52:31.625Z,8.11
2018-05-01T12:53:40.459Z,8.05
2018-05-01T12:54:49.289Z,8.1
2018-05-01T12:55:58.419Z,8.04
2018-05-01T12:57:07.253Z,8.15
2018-05-01T12:58:16.358Z,8.1
2018-05-01T12:59:25.190Z,8.05
2018-05-01T13:00:34.022Z,8.15
2018-05-01T13:01:43.006Z,8.16
2018-05-01T13:02:51.838Z,8.11
2018-05-01T13:04:00.671Z,8.11
2018-05-01T13:05:09.542Z,8.12
2018-05-01T13:06:18.335Z,8.28
2018-05-01T13:07:27.319Z,8.33
2018-05-01T13:08:36.151Z,8.18
2018-05-01T13:09:44.984Z,8.18
2018-05-01T13:10:53.816Z,8.3
2018-05-01T13:12:02.651Z,8.26
2018-05-01T13:13:11.784Z,8.34
2018-05-01T13:14:20.666Z,8.36
2018-05-01T13:15:29.503Z,8.33
2018-05-01T13:16:38.337Z,8.28
2018-05-01T13:17:47.445Z,8.34
2018-05-01T13:18:56.384Z,8.38
2018-05-01T13:20:05.222Z,8.45
2018-05-01T13:21:14.058Z,8.45
2018-05-01T13:22:22.894Z,8.56
2018-05-01T13:23:31.728Z,8.61
2018-05-01T13:24:40.665Z,8.55
2018-05-01T13:25:49.500Z,8.73
2018-05-01T13:26:58.331Z,8.65
2018-05-01T13:28:07.167Z,8.7
2018-05-01T13:29:16.275Z,8.63
2018-05-01T13:30:25.431Z,8.73
2018-05-01T13:31:34.548Z,8.71
2018-05-01T13:32:43.379Z,8.65
2018-05-01T13:33:52.215Z,8.62
2018-05-01T13:35:01.325Z,8.55
2018-05-01T13:36:10.184Z,8.61
2018-05-01T13:37:19.042Z,8.62
2018-05-01T13:38:28.150Z,8.61
2018-05-01T13:39:37.537Z,8.53
2018-05-01T13:40:46.442Z,8.55
2018-05-01T13:41:56.091Z,8.58
2018-05-01T13:43:05.198Z,8.61
2018-05-01T13:44:14.031Z,8.58
2018-05-01T13:45:23.369Z,8.56
2018-05-01T13:46:32.579Z,8.58
2018-05-01T13:47:41.413Z,8.45
2018-05-01T13:48:50.247Z,8.58
2018-05-01T13:49:59.731Z,8.61
2018-05-01T13:51:08.570Z,8.5
2018-05-01T13:52:17.405Z,8.5
2018-05-01T13:53:26.240Z,8.56
2018-05-01T13:54:35.346Z,8.58
2018-05-01T13:55:44.180Z,8.68
2018-05-01T13:56:53.289Z,8.65
2018-05-01T13:58:02.121Z,8.73
2018-05-01T13:59:11.573Z,8.73
2018-05-01T14:00:20.405Z,8.77
2018-05-01T14:01:29.239Z,8.89
2018-05-01T14:02:38.073Z,8.96
2018-05-01T14:03:46.906Z,8.94
2018-05-01T14:04:55.842Z,9.08
2018-05-01T14:06:04.775Z,9.08
2018-05-01T14:07:13.623Z,9.2
2018-05-01T14:08:22.780Z,9.17
2018-05-01T14:09:31.888Z,9.2
2018-05-01T14:10:41.002Z,9.23
2018-05-01T14:11:50.400Z,9.28
2018-05-01T14:12:59.234Z,9.36
2018-05-01T14:14:08.067Z,9.39
2018-05-01T14:15:16.901Z,9.39
2018-05-01T14:16:26.010Z,9.47
2018-05-01T14:17:34.847Z,9.4
2018-05-01T14:18:43.683Z,9.46
2018-05-01T14:19:52.527Z,9.58
2018-05-01T14:21:01.646Z,9.54
2018-05-01T14:22:10.486Z,9.48
2018-05-01T14:23:19.597Z,9.69
2018-05-01T14:24:28.721Z,9.79
2018-05-01T14:25:38.147Z,9.94
2018-05-01T14:26:47.179Z,10.11
2018-05-01T14:27:56.024Z,10.14
2018-05-01T14:29:05.421Z,10.34
2018-05-01T14:30:14.258Z,10.33
2018-05-01T14:31:23.137Z,10.55
2018-05-01T14:32:31.979Z,10.48
2018-05-01T14:33:40.918Z,10.67
2018-05-01T14:34:50.106Z,10.78
2018-05-01T14:35:58.947Z,10.81
2018-05-01T14:37:07.785Z,10.84
2018-05-01T14:38:16.628Z,10.97
2018-05-01T14:39:25.898Z,10.91
2018-05-01T14:40:35.007Z,10.97
2018-05-01T14:41:43.944Z,11.1
2018-05-01T14:42:52.782Z,11.1
2018-05-01T14:44:01.616Z,11.09
2018-05-01T14:45:10.553Z,11.15
2018-05-01T14:46:19.396Z,11.25
2018-05-01T14:47:28.236Z,11.25
2018-05-01T14:48:37.076Z,11.27
2018-05-01T14:49:45.907Z,11.17
2018-05-01T14:50:55.047Z,11.24
2018-05-01T14:52:04.157Z,11.22
2018-05-01T14:53:12.993Z,11.27
2018-05-01T14:54:21.831Z,11.27
2018-05-01T14:55:30.668Z,11.27
2018-05-01T14:56:39.939Z,11.29
2018-05-01T14:57:49.062Z,11.33
2018-05-01T14:58:58.169Z,11.33
2018-05-01T15:00:07.009Z,11.29
2018-05-01T15:01:15.849Z,11.42
2018-05-01T15:02:24.960Z,11.51
2018-05-01T15:03:33.797Z,11.55
2018-05-01T15:04:43.464Z,11.47
2018-05-01T15:05:52.301Z,11.55
2018-05-01T15:07:01.410Z,11.52
2018-05-01T15:08:10.396Z,11.57
2018-05-01T15:09:19.232Z,11.54
2018-05-01T15:10:28.356Z,11.49
2018-05-01T15:11:37.753Z,11.47
2018-05-01T15:12:46.587Z,11.51
2018-05-01T15:13:55.425Z,11.57
2018-05-01T15:15:04.260Z,11.54
2018-05-01T15:16:13.098Z,11.54
2018-05-01T15:17:21.934Z,11.47
2018-05-01T15:18:30.774Z,11.51